Time;durP1;ratioP1;P1;durP2;ratioP2;P2;SDS_P1;SDS_P2;PMS_P1;PMS_P2;Temp;Humidity;BMP_temperature;BMP_pressure;BME280_temperature;BME280_humidity;BME280_pressure;Samples;Min_cycle;Max_cycle;Signal;HPM_P1;HPM_P2
2023/10/06 03:04:06;;;;;;;16.70;6.13;;;17.50;71.20;;;;;;5047977;28;20037;-95
2023/10/06 03:06:32;;;;;;;15.80;5.28;;;17.50;71.20;;;;;;5051869;28;20025;-93
2023/10/06 03:09:06;;;;;;;13.10;5.53;;;17.50;71.20;;;;;;5046289;28;20021;-93
2023/10/06 03:11:43;;;;;;;10.13;5.20;;;17.50;71.30;;;;;;5049088;28;20525;-93
2023/10/06 03:14:09;;;;;;;18.00;6.32;;;17.50;71.10;;;;;;5039242;28;20035;-94
2023/10/06 03:16:40;;;;;;;12.10;5.30;;;17.50;71.10;;;;;;5025766;28;20470;-93
2023/10/06 03:19:12;;;;;;;10.63;5.32;;;17.50;71.10;;;;;;5036984;28;20036;-94
2023/10/06 03:21:45;;;;;;;13.80;5.32;;;17.50;70.90;;;;;;5045854;28;20029;-93
2023/10/06 03:24:15;;;;;;;11.23;4.97;;;17.50;71.10;;;;;;5042992;28;20250;-93
2023/10/06 03:26:45;;;;;;;14.02;5.22;;;17.50;71.00;;;;;;5050038;28;20340;-92
2023/10/06 03:29:28;;;;;;;11.13;4.63;;;17.50;71.00;;;;;;5045549;28;20035;-92
2023/10/06 03:31:56;;;;;;;15.25;5.88;;;17.50;71.10;;;;;;5052198;28;20033;-93
2023/10/06 03:34:23;;;;;;;10.98;4.68;;;17.50;70.90;;;;;;5051776;28;20049;-92
2023/10/06 03:36:51;;;;;;;13.70;4.72;;;17.50;70.90;;;;;;5047186;28;20028;-94
2023/10/06 03:39:48;;;;;;;12.00;4.78;;;17.50;70.90;;;;;;5035454;28;20036;-91
2023/10/06 03:42:12;;;;;;;10.45;5.03;;;17.50;70.90;;;;;;5051777;28;20025;-93
2023/10/06 03:44:37;;;;;;;8.50;4.38;;;17.50;70.80;;;;;;5026496;28;20040;-93
2023/10/06 03:47:07;;;;;;;15.88;5.03;;;17.50;70.80;;;;;;5040943;28;20026;-95
2023/10/06 03:49:33;;;;;;;12.77;4.85;;;17.50;71.00;;;;;;5050240;28;20123;-92
2023/10/06 03:51:59;;;;;;;16.20;5.00;;;17.50;70.80;;;;;;5039452;28;20037;-93
2023/10/06 03:54:25;;;;;;;8.77;4.07;;;17.50;70.80;;;;;;5050071;28;20485;-91
2023/10/06 03:56:51;;;;;;;12.43;5.47;;;17.50;70.60;;;;;;5053815;28;20017;-92
2023/10/06 03:59:17;;;;;;;13.00;5.03;;;17.50;70.60;;;;;;5049074;28;20071;-92
2023/10/06 04:01:44;;;;;;;10.40;5.00;;;17.40;70.50;;;;;;5029458;28;20021;-92
2023/10/06 04:04:23;;;;;;;21.08;5.30;;;17.50;70.60;;;;;;5037719;28;20036;-93
2023/10/06 04:06:49;;;;;;;13.80;5.28;;;17.50;70.60;;;;;;5050290;28;20047;-92
2023/10/06 04:09:26;;;;;;;11.80;5.13;;;17.50;70.50;;;;;;5032163;28;20025;-94
2023/10/06 04:11:52;;;;;;;15.20;6.00;;;17.50;70.30;;;;;;5054012;28;20056;-93
2023/10/06 04:14:17;;;;;;;14.73;5.95;;;17.50;70.20;;;;;;5048075;28;20072;-94
2023/10/06 04:16:45;;;;;;;15.93;5.50;;;17.50;70.40;;;;;;5035523;28;20024;-92
2023/10/06 04:19:14;;;;;;;12.27;4.75;;;17.50;70.60;;;;;;5052710;28;20083;-92
2023/10/06 04:21:41;;;;;;;16.17;5.05;;;17.50;70.60;;;;;;5026176;28;20091;-91
2023/10/06 04:24:07;;;;;;;15.38;6.28;;;17.50;70.40;;;;;;5054497;28;20051;-93
2023/10/06 04:26:33;;;;;;;13.10;5.38;;;17.50;70.40;;;;;;5032349;28;20026;-92
2023/10/06 04:28:59;;;;;;;11.50;4.80;;;17.50;70.10;;;;;;5031268;28;20020;-91
2023/10/06 04:31:25;;;;;;;14.15;5.25;;;17.50;70.50;;;;;;5053415;28;20029;-94
2023/10/06 04:33:50;;;;;;;11.48;5.38;;;17.40;70.30;;;;;;5043451;28;20576;-94
2023/10/06 04:36:20;;;;;;;11.82;5.63;;;17.50;70.30;;;;;;5035535;28;20021;-94
2023/10/06 04:38:46;;;;;;;13.48;5.07;;;17.50;70.40;;;;;;5051078;28;20123;-93
2023/10/06 04:41:14;;;;;;;16.23;5.10;;;17.80;70.50;;;;;;5043829;28;20053;-94
2023/10/06 04:43:44;;;;;;;17.13;6.25;;;17.50;70.10;;;;;;5034285;28;20466;-93
2023/10/06 04:46:11;;;;;;;9.70;4.88;;;17.40;70.10;;;;;;5057623;28;20020;-93
2023/10/06 04:48:36;;;;;;;14.05;4.97;;;17.40;70.30;;;;;;5038351;28;20366;-93
2023/10/06 04:51:05;;;;;;;15.27;5.40;;;17.40;70.20;;;;;;5049575;28;20045;-93
2023/10/06 04:53:38;;;;;;;12.90;5.63;;;17.60;70.20;;;;;;5049395;28;20026;-94
2023/10/06 04:56:09;;;;;;;12.43;4.60;;;17.40;70.30;;;;;;5047110;28;20135;-89
2023/10/06 04:58:36;;;;;;;15.23;4.88;;;17.50;70.00;;;;;;5031796;28;20037;-92
2023/10/06 05:01:07;;;;;;;15.18;5.22;;;17.40;69.90;;;;;;5043272;28;20021;-93
2023/10/06 05:03:45;;;;;;;11.63;5.05;;;17.40;70.00;;;;;;5030331;28;20037;-92
2023/10/06 05:06:16;;;;;;;11.55;4.70;;;17.40;70.00;;;;;;5055833;28;20017;-92
2023/10/06 05:08:44;;;;;;;9.95;3.92;;;17.40;69.90;;;;;;5044925;28;20034;-93
2023/10/06 05:11:11;;;;;;;10.30;4.57;;;17.40;69.50;;;;;;5042215;28;20051;-93
2023/10/06 05:13:37;;;;;;;11.63;5.22;;;17.10;69.50;;;;;;5053941;28;20025;-89
2023/10/06 05:16:03;;;;;;;15.23;5.07;;;17.40;70.40;;;;;;5047202;28;20029;-90
2023/10/06 05:18:29;;;;;;;14.23;4.82;;;17.50;69.80;;;;;;5051511;28;20037;-87
2023/10/06 05:20:55;;;;;;;14.63;5.00;;;17.40;69.60;;;;;;5036132;28;20052;-91
2023/10/06 05:23:21;;;;;;;18.05;5.50;;;17.40;69.40;;;;;;5048705;28;20454;-94
2023/10/06 05:25:48;;;;;;;15.70;5.00;;;17.40;69.60;;;;;;5032656;28;20037;-93
2023/10/06 05:28:16;;;;;;;14.25;5.10;;;17.40;69.50;;;;;;5052732;28;20024;-92
2023/10/06 05:30:43;;;;;;;16.42;5.50;;;17.40;69.60;;;;;;5046523;28;20041;-94
2023/10/06 05:33:10;;;;;;;11.23;5.13;;;17.40;69.30;;;;;;5043511;28;20026;-86
2023/10/06 05:35:41;;;;;;;14.02;5.32;;;17.40;69.30;;;;;;5051684;28;20490;-94
2023/10/06 05:38:13;;;;;;;12.57;5.05;;;17.40;69.50;;;;;;5031771;28;20033;-91
2023/10/06 05:40:46;;;;;;;14.82;5.18;;;17.40;69.50;;;;;;5053064;28;20466;-92
2023/10/06 05:43:12;;;;;;;13.70;5.25;;;17.40;69.30;;;;;;5043410;28;20024;-94
2023/10/06 05:45:41;;;;;;;13.95;5.40;;;17.40;69.30;;;;;;5046617;28;20032;-92
2023/10/06 05:48:11;;;;;;;20.15;5.00;;;17.40;69.40;;;;;;5057528;28;20063;-91
2023/10/06 05:50:38;;;;;;;13.27;5.57;;;17.40;69.20;;;;;;5054319;28;20116;-92
2023/10/06 05:53:07;;;;;;;10.52;4.93;;;17.40;69.20;;;;;;5034219;28;20055;-93
2023/10/06 05:55:38;;;;;;;12.73;5.20;;;17.40;69.20;;;;;;5051003;28;20492;-92
2023/10/06 05:58:08;;;;;;;8.55;4.53;;;17.70;69.50;;;;;;5031162;28;20045;-93
2023/10/06 06:00:35;;;;;;;15.80;5.57;;;17.40;69.00;;;;;;5055884;28;20029;-93
2023/10/06 06:03:10;;;;;;;10.18;5.00;;;17.50;69.10;;;;;;5034234;28;20029;-92
2023/10/06 06:05:40;;;;;;;11.32;5.15;;;17.40;68.90;;;;;;5051095;28;20102;-92
2023/10/06 06:08:08;;;;;;;18.00;5.50;;;17.40;69.10;;;;;;5042537;28;20143;-93
2023/10/06 06:10:35;;;;;;;21.42;5.70;;;17.40;68.70;;;;;;5052153;28;20056;-94
2023/10/06 06:13:00;;;;;;;16.90;4.45;;;17.40;69.00;;;;;;5026479;28;20406;-93
2023/10/06 06:15:27;;;;;;;13.95;5.05;;;17.40;68.70;;;;;;5039743;28;20021;-94
2023/10/06 06:17:53;;;;;;;14.80;5.30;;;17.40;68.70;;;;;;5038916;28;20044;-91
2023/10/06 06:20:22;;;;;;;16.08;5.38;;;17.50;68.80;;;;;;5050983;28;20017;-93
2023/10/06 06:22:53;;;;;;;19.40;5.32;;;17.40;68.80;;;;;;5036544;28;20087;-91
2023/10/06 06:25:23;;;;;;;15.43;4.95;;;17.40;68.50;;;;;;5041033;28;20036;-90
2023/10/06 06:27:50;;;;;;;17.15;4.97;;;17.40;68.50;;;;;;5046259;28;20029;-93
2023/10/06 06:30:18;;;;;;;13.07;4.65;;;17.40;68.50;;;;;;5039183;28;20036;-94
2023/10/06 06:32:46;;;;;;;12.48;4.93;;;17.40;68.50;;;;;;5044068;28;20033;-93
2023/10/06 06:35:13;;;;;;;16.58;5.07;;;17.40;68.50;;;;;;5060106;28;20049;-93
2023/10/06 06:37:42;;;;;;;16.67;5.40;;;17.40;68.40;;;;;;5062658;28;20032;-94
2023/10/06 06:40:10;;;;;;;21.05;5.90;;;17.40;68.30;;;;;;5035600;28;20136;-93
2023/10/06 06:42:36;;;;;;;23.45;4.85;;;17.40;68.30;;;;;;5053674;28;20025;-92
2023/10/06 06:45:03;;;;;;;10.30;4.10;;;17.40;68.30;;;;;;5036158;28;20071;-93
2023/10/06 06:47:29;;;;;;;13.60;5.18;;;17.40;68.40;;;;;;5031887;28;20033;-93
2023/10/06 06:49:55;;;;;;;12.75;4.88;;;17.40;68.40;;;;;;5032277;28;20071;-94
2023/10/06 06:52:21;;;;;;;10.32;4.22;;;17.40;68.40;;;;;;5047920;28;20111;-95
2023/10/06 06:54:48;;;;;;;22.40;4.93;;;17.40;68.40;;;;;;5030829;28;20477;-92
2023/10/06 06:57:17;;;;;;;21.35;6.43;;;17.40;68.30;;;;;;5038539;28;20017;-96
2023/10/06 06:59:44;;;;;;;22.58;5.75;;;17.40;68.40;;;;;;5029697;28;20060;-92
2023/10/06 07:02:10;;;;;;;19.17;5.28;;;17.40;68.40;;;;;;5042869;28;20060;-90
2023/10/06 07:04:36;;;;;;;20.35;5.90;;;17.40;68.30;;;;;;5042531;28;20029;-94
2023/10/06 07:07:02;;;;;;;19.85;5.50;;;17.40;68.40;;;;;;5047740;28;20075;-93
2023/10/06 07:09:28;;;;;;;19.42;5.03;;;17.40;68.30;;;;;;5043927;28;20060;-94
2023/10/06 07:11:57;;;;;;;16.98;5.30;;;17.40;68.60;;;;;;5026132;28;20120;-93
2023/10/06 07:14:23;;;;;;;16.92;5.80;;;17.30;68.40;;;;;;5047730;28;20025;-93
2023/10/06 07:16:48;;;;;;;18.55;6.32;;;17.40;68.50;;;;;;5044685;28;20572;-94
2023/10/06 07:19:14;;;;;;;24.70;6.40;;;17.40;68.50;;;;;;5045424;28;20045;-94
2023/10/06 07:21:43;;;;;;;16.75;5.55;;;17.40;68.70;;;;;;5027525;28;20037;-95
2023/10/06 07:24:13;;;;;;;19.98;6.55;;;17.40;68.80;;;;;;5036616;28;20029;-92
2023/10/06 07:26:42;;;;;;;21.33;5.90;;;17.50;68.90;;;;;;5046514;28;20060;-92
2023/10/06 07:29:08;;;;;;;25.65;6.40;;;17.40;69.00;;;;;;5043677;28;20108;-93
2023/10/06 07:31:34;;;;;;;15.88;5.78;;;17.40;69.10;;;;;;5019707;28;20087;-93
2023/10/06 07:34:03;;;;;;;13.02;5.68;;;17.40;69.10;;;;;;5043726;28;20017;-93
2023/10/06 07:36:29;;;;;;;22.63;5.18;;;17.40;69.20;;;;;;5037052;28;20033;-94
2023/10/06 07:38:54;;;;;;;20.30;6.43;;;17.40;69.40;;;;;;5044185;28;20045;-95
2023/10/06 07:41:23;;;;;;;20.40;6.38;;;17.40;69.40;;;;;;5043725;28;20504;-94
2023/10/06 07:43:52;;;;;;;18.70;6.32;;;17.10;69.30;;;;;;5026749;28;20056;-94
2023/10/06 07:46:18;;;;;;;18.95;6.60;;;17.40;69.70;;;;;;5034899;28;20028;-94
2023/10/06 07:48:46;;;;;;;24.67;6.75;;;17.40;69.60;;;;;;5034956;28;20474;-93
2023/10/06 07:51:16;;;;;;;19.77;5.57;;;17.40;69.70;;;;;;5026896;28;20249;-94
2023/10/06 07:53:43;;;;;;;21.05;6.38;;;17.40;69.60;;;;;;5039088;28;20033;-93
2023/10/06 07:56:09;;;;;;;31.38;6.57;;;17.50;69.80;;;;;;5030813;28;20029;-94
2023/10/06 07:58:41;;;;;;;20.20;7.25;;;17.50;69.90;;;;;;5047717;28;20037;-93
2023/10/06 08:01:08;;;;;;;26.42;7.20;;;17.50;70.00;;;;;;5043268;28;20032;-95
2023/10/06 08:03:37;;;;;;;23.00;6.65;;;17.70;70.20;;;;;;5029597;28;20049;-93
2023/10/06 08:06:05;;;;;;;14.57;6.78;;;17.40;70.00;;;;;;5041501;28;20505;-95
2023/10/06 08:08:34;;;;;;;26.63;7.95;;;17.40;70.00;;;;;;5048272;28;20053;-91
2023/10/06 08:11:02;;;;;;;16.45;7.93;;;17.50;70.10;;;;;;5044449;28;20074;-93
2023/10/06 08:13:33;;;;;;;24.15;6.32;;;17.50;70.10;;;;;;5043050;28;20033;-93
2023/10/06 08:16:00;;;;;;;25.27;8.15;;;17.50;70.80;;;;;;5045645;28;20035;-93
2023/10/06 08:18:30;;;;;;;18.88;6.93;;;17.50;70.10;;;;;;5045077;28;20033;-94
2023/10/06 08:21:03;;;;;;;20.40;7.65;;;17.50;70.20;;;;;;5021291;28;20029;-90
2023/10/06 08:23:31;;;;;;;29.77;10.23;;;17.50;70.10;;;;;;5025298;28;20039;-89
2023/10/06 08:25:57;;;;;;;26.35;10.77;;;17.50;70.20;;;;;;5026753;28;20032;-92
2023/10/06 08:28:24;;;;;;;29.42;9.63;;;17.50;70.30;;;;;;5041317;28;20017;-93
2023/10/06 08:30:50;;;;;;;28.83;10.77;;;17.40;70.30;;;;;;5031059;28;20025;-93
2023/10/06 08:33:16;;;;;;;26.17;11.25;;;17.50;70.30;;;;;;5041318;28;20101;-94
2023/10/06 08:35:42;;;;;;;33.17;10.93;;;17.50;70.40;;;;;;5045109;28;20144;-91
2023/10/06 08:38:09;;;;;;;24.83;11.27;;;17.50;70.40;;;;;;5048203;28;20074;-95
2023/10/06 08:40:37;;;;;;;28.95;10.40;;;17.50;70.40;;;;;;5032821;28;20120;-93
2023/10/06 08:43:06;;;;;;;36.80;13.10;;;17.50;70.40;;;;;;5029129;28;20107;-93
2023/10/06 08:45:41;;;;;;;38.20;14.70;;;17.50;70.40;;;;;;5037383;28;20056;-93
2023/10/06 08:48:13;;;;;;;31.85;15.35;;;17.50;70.50;;;;;;5031394;28;20029;-91
2023/10/06 08:50:43;;;;;;;38.40;15.48;;;17.50;70.60;;;;;;5024994;28;20025;-93
2023/10/06 08:53:14;;;;;;;40.67;17.47;;;17.50;70.60;;;;;;5025861;28;20501;-94
2023/10/06 08:55:44;;;;;;;38.08;15.18;;;17.50;70.60;;;;;;5035811;28;20488;-94
2023/10/06 08:58:13;;;;;;;39.80;15.40;;;17.50;70.60;;;;;;5045884;28;20032;-94
2023/10/06 09:00:40;;;;;;;30.85;13.93;;;17.50;70.60;;;;;;5042538;28;20458;-93
2023/10/06 09:03:09;;;;;;;28.17;12.05;;;17.50;70.60;;;;;;5041670;28;20033;-90
2023/10/06 09:05:37;;;;;;;29.38;11.93;;;17.50;70.80;;;;;;5031235;28;20035;-93
2023/10/06 09:08:08;;;;;;;29.85;11.88;;;17.50;70.80;;;;;;5019899;28;20065;-93
2023/10/06 09:10:36;;;;;;;38.33;15.52;;;17.50;70.90;;;;;;5039905;28;20021;-91
2023/10/06 09:13:05;;;;;;;39.13;15.23;;;17.50;71.00;;;;;;5030435;28;20076;-94
2023/10/06 09:15:32;;;;;;;37.50;14.13;;;17.50;71.10;;;;;;5019130;28;20128;-91
2023/10/06 09:17:59;;;;;;;28.20;14.20;;;17.50;71.00;;;;;;5024104;28;20025;-92
2023/10/06 09:20:30;;;;;;;35.65;15.10;;;17.50;71.20;;;;;;5028362;28;20482;-92
2023/10/06 09:22:56;;;;;;;36.33;16.05;;;17.50;71.10;;;;;;5019344;28;20022;-92
2023/10/06 09:25:22;;;;;;;40.78;15.27;;;17.50;71.10;;;;;;5039908;28;20056;-92
2023/10/06 09:27:48;;;;;;;39.92;15.93;;;17.50;71.20;;;;;;5022180;28;20059;-91
2023/10/06 09:30:20;;;;;;;43.40;16.88;;;17.50;71.20;;;;;;5033926;28;20036;-80
2023/10/06 09:32:46;;;;;;;35.30;15.38;;;17.40;71.40;;;;;;5043021;28;20024;-80
2023/10/06 09:35:19;;;;;;;42.78;17.92;;;17.20;72.00;;;;;;5041672;28;20049;-80
2023/10/06 09:37:45;;;;;;;32.97;15.32;;;17.10;72.80;;;;;;5043059;28;20040;-80
2023/10/06 09:40:20;;;;;;;29.73;12.68;;;17.00;73.10;;;;;;5039756;28;20026;-79
2023/10/06 09:42:50;;;;;;;35.35;15.77;;;17.00;73.50;;;;;;5047467;28;20032;-79
2023/10/06 09:45:21;;;;;;;35.63;15.23;;;16.80;73.90;;;;;;5035424;28;20041;-79
2023/10/06 09:47:56;;;;;;;31.30;14.85;;;16.80;74.70;;;;;;5037595;28;20792;-80
2023/10/06 09:50:23;;;;;;;35.53;12.73;;;16.80;75.00;;;;;;5044230;28;20479;-80
2023/10/06 09:52:50;;;;;;;27.75;11.90;;;16.80;75.20;;;;;;5025159;28;20017;-79
2023/10/06 09:55:21;;;;;;;29.77;12.68;;;16.90;75.50;;;;;;5026144;28;20518;-80
2023/10/06 09:57:48;;;;;;;25.52;13.02;;;16.90;75.60;;;;;;5043989;28;20025;-81
2023/10/06 10:00:19;;;;;;;30.95;11.98;;;16.90;75.60;;;;;;5052993;28;20109;-80
2023/10/06 10:02:47;;;;;;;26.42;11.35;;;16.90;75.50;;;;;;5036605;28;20684;-80
2023/10/06 10:05:14;;;;;;;28.83;11.07;;;16.90;75.80;;;;;;5018482;28;20025;-80
2023/10/06 10:07:40;;;;;;;22.67;11.02;;;16.80;76.90;;;;;;5044926;28;20091;-81
2023/10/06 10:10:13;;;;;;;33.95;13.13;;;16.80;76.80;;;;;;5030900;28;20401;-81
2023/10/06 10:13:19;;;;;;;24.63;12.00;;;16.90;76.90;;;;;;5034343;28;20056;-82
2023/10/06 10:16:04;;;;;;;22.92;10.73;;;16.90;76.80;;;;;;5035487;28;20048;-83
2023/10/06 10:18:40;;;;;;;26.65;12.45;;;17.00;77.80;;;;;;5038389;28;20128;-81
2023/10/06 10:21:11;;;;;;;26.08;12.52;;;17.00;77.70;;;;;;5023150;28;20028;-82
2023/10/06 10:23:40;;;;;;;31.05;11.82;;;17.00;77.70;;;;;;5043077;28;20087;-80
2023/10/06 10:26:22;;;;;;;27.52;12.43;;;16.90;77.50;;;;;;5043636;28;20029;-88
2023/10/06 10:29:12;;;;;;;17.65;9.23;;;16.80;78.00;;;;;;5032130;28;20076;-87
2023/10/06 10:32:01;;;;;;;25.17;11.35;;;17.00;77.50;;;;;;5034582;28;20393;-91
2023/10/06 10:34:33;;;;;;;23.30;9.50;;;17.20;76.80;;;;;;5018626;28;20321;-91
2023/10/06 10:37:07;;;;;;;22.65;11.10;;;17.20;76.20;;;;;;5037500;28;20489;-90
2023/10/06 10:39:39;;;;;;;18.05;10.07;;;17.30;76.20;;;;;;5031232;28;20094;-90
2023/10/06 10:42:05;;;;;;;23.52;11.65;;;17.30;75.80;;;;;;5023185;28;20370;-93
2023/10/06 10:44:31;;;;;;;21.92;10.95;;;17.30;75.50;;;;;;5046956;28;20038;-92
2023/10/06 10:47:02;;;;;;;25.27;10.23;;;17.30;75.60;;;;;;5034525;28;20025;-91
2023/10/06 10:49:32;;;;;;;19.85;10.15;;;17.40;75.50;;;;;;5032564;28;20150;-91
2023/10/06 10:52:05;;;;;;;16.45;8.13;;;17.40;75.60;;;;;;5035342;28;20120;-92
2023/10/06 10:54:33;;;;;;;21.55;11.07;;;17.40;75.00;;;;;;5023564;28;20492;-90
2023/10/06 10:57:09;;;;;;;19.02;10.15;;;17.40;75.00;;;;;;5027721;28;20499;-93
2023/10/06 11:02:52;;;;;;;26.90;10.47;;;17.40;75.00;;;;;;5038362;28;20025;-90
2023/10/06 11:05:22;;;;;;;20.23;10.15;;;17.50;75.50;;;;;;5034000;28;20290;-92
2023/10/06 11:08:14;;;;;;;18.13;9.27;;;17.50;75.20;;;;;;5039941;28;20087;-91
2023/10/06 11:10:39;;;;;;;18.50;8.73;;;17.50;75.20;;;;;;5043690;28;20450;-90
2023/10/06 11:13:18;;;;;;;23.50;9.93;;;17.50;75.00;;;;;;5047049;28;20041;-92
2023/10/06 11:15:48;;;;;;;20.73;7.65;;;17.50;75.40;;;;;;5038222;28;20047;-92
2023/10/06 11:18:22;;;;;;;21.38;9.25;;;17.50;75.20;;;;;;5047300;28;20033;-93
2023/10/06 11:20:48;;;;;;;22.20;7.40;;;17.50;75.60;;;;;;5058913;28;20141;-93
2023/10/06 11:23:15;;;;;;;16.63;6.38;;;17.50;75.60;;;;;;5050099;28;20075;-94
2023/10/06 11:25:48;;;;;;;15.60;6.57;;;17.60;75.50;;;;;;5045075;28;20057;-93
2023/10/06 11:28:15;;;;;;;15.70;6.72;;;17.60;75.60;;;;;;5040105;28;20022;-92
2023/10/06 11:30:42;;;;;;;20.23;6.55;;;17.40;75.70;;;;;;5032907;28;20029;-94
2023/10/06 11:33:26;;;;;;;13.30;6.10;;;17.60;76.00;;;;;;5036797;28;20022;-93
2023/10/06 11:35:54;;;;;;;16.58;7.65;;;17.60;76.00;;;;;;5051598;28;20033;-92
2023/10/06 11:38:20;;;;;;;18.75;7.10;;;17.60;76.00;;;;;;5032671;28;20107;-93
2023/10/06 11:40:46;;;;;;;18.00;7.47;;;17.60;75.70;;;;;;5047247;28;20035;-93
2023/10/06 11:43:21;;;;;;;24.85;7.50;;;17.60;76.00;;;;;;5041050;28;20017;-95
2023/10/06 11:45:47;;;;;;;18.83;7.45;;;17.60;76.00;;;;;;5033593;28;20115;-94
2023/10/06 11:48:27;;;;;;;18.85;7.43;;;17.70;76.10;;;;;;5045253;28;20140;-93
2023/10/06 11:51:13;;;;;;;14.05;6.22;;;17.70;76.00;;;;;;5044463;28;20029;-94
2023/10/06 11:53:40;;;;;;;16.50;7.20;;;17.70;76.00;;;;;;5042866;28;20052;-92
2023/10/06 11:56:13;;;;;;;19.45;7.22;;;17.70;76.00;;;;;;5046401;28;20072;-92
2023/10/06 11:58:40;;;;;;;23.52;8.95;;;17.70;76.10;;;;;;5044411;28;20048;-92
2023/10/06 12:01:36;;;;;;;33.92;12.20;;;17.70;76.20;;;;;;5031563;28;20432;-94
2023/10/06 12:04:04;;;;;;;15.07;7.32;;;17.70;76.30;;;;;;5041939;28;20680;-93
2023/10/06 12:06:41;;;;;;;13.85;6.22;;;17.70;76.10;;;;;;5040388;28;20033;-94
2023/10/06 12:09:15;;;;;;;12.18;4.80;;;17.80;76.20;;;;;;5024807;28;20075;-92
2023/10/06 12:11:41;;;;;;;16.23;4.90;;;17.70;76.00;;;;;;5039839;28;20055;-94
2023/10/06 12:14:07;;;;;;;12.65;4.40;;;17.70;76.00;;;;;;5038803;28;20029;-92
2023/10/06 12:16:36;;;;;;;14.15;4.75;;;17.70;76.10;;;;;;5030430;28;20033;-93
2023/10/06 12:19:01;;;;;;;8.75;3.97;;;18.20;76.40;;;;;;5044696;28;20075;-91
2023/10/06 12:21:27;;;;;;;19.00;4.50;;;17.80;76.10;;;;;;5044910;28;20028;-93
2023/10/06 12:23:52;;;;;;;11.07;5.20;;;18.00;76.20;;;;;;5054352;28;20123;-93
2023/10/06 12:26:18;;;;;;;8.23;4.68;;;18.50;76.50;;;;;;5040118;28;20057;-90
2023/10/06 12:28:44;;;;;;;14.02;4.38;;;17.80;76.10;;;;;;5051858;28;20013;-92
2023/10/06 12:31:12;;;;;;;22.80;5.07;;;17.80;76.10;;;;;;5054587;28;20036;-94
2023/10/06 12:33:38;;;;;;;11.07;4.10;;;17.80;75.90;;;;;;5052998;28;20093;-91
2023/10/06 12:36:08;;;;;;;21.13;7.72;;;17.80;76.00;;;;;;5045061;28;20029;-94
2023/10/06 12:38:34;;;;;;;13.63;5.25;;;17.80;76.00;;;;;;5048008;28;20033;-94
2023/10/06 12:41:00;;;;;;;9.95;4.93;;;17.90;76.20;;;;;;5030369;28;20528;-95
2023/10/06 12:43:26;;;;;;;15.50;4.97;;;17.90;76.20;;;;;;5055405;28;20021;-94
2023/10/06 12:45:51;;;;;;;13.48;4.55;;;17.90;76.00;;;;;;5053155;28;20025;-95
2023/10/06 12:48:19;;;;;;;11.48;4.15;;;17.80;76.10;;;;;;5045313;28;20147;-94
2023/10/06 12:50:47;;;;;;;15.20;4.78;;;17.90;76.20;;;;;;5046972;28;20091;-93
2023/10/06 12:53:16;;;;;;;12.73;4.10;;;17.90;76.20;;;;;;5049050;28;20056;-95
2023/10/06 12:55:42;;;;;;;11.80;4.05;;;17.80;77.00;;;;;;5052214;28;20029;-91
2023/10/06 12:58:11;;;;;;;10.45;4.38;;;18.00;76.40;;;;;;5045788;28;20013;-93
2023/10/06 13:00:38;;;;;;;8.38;4.43;;;17.80;76.20;;;;;;5040681;28;20470;-93
2023/10/06 13:03:15;;;;;;;11.10;4.10;;;17.80;76.30;;;;;;5054625;28;20112;-92
2023/10/06 13:05:50;;;;;;;9.57;4.70;;;17.80;76.20;;;;;;5040397;28;20064;-89
2023/10/06 13:08:24;;;;;;;11.70;4.13;;;17.90;76.00;;;;;;5046171;28;20165;-90
2023/10/06 13:10:51;;;;;;;10.13;3.53;;;18.40;76.10;;;;;;5037662;28;20104;-90
2023/10/06 13:13:17;;;;;;;10.55;3.60;;;17.90;75.80;;;;;;5046701;28;20449;-91
2023/10/06 13:15:46;;;;;;;12.40;4.00;;;17.90;75.70;;;;;;5036668;28;20127;-89
2023/10/06 13:18:13;;;;;;;15.52;3.95;;;18.00;75.50;;;;;;5045685;28;20112;-91
2023/10/06 13:20:40;;;;;;;7.53;3.22;;;18.00;75.50;;;;;;5043050;28;20492;-90
2023/10/06 13:23:08;;;;;;;12.15;3.47;;;18.00;75.40;;;;;;5042090;28;20071;-91
2023/10/06 13:25:37;;;;;;;8.70;4.07;;;17.90;75.30;;;;;;5023085;28;20025;-90
2023/10/06 13:28:03;;;;;;;7.00;3.92;;;17.90;75.30;;;;;;5026890;28;20022;-91
2023/10/06 13:30:32;;;;;;;11.98;4.47;;;17.90;75.10;;;;;;5029742;28;20107;-90
2023/10/06 13:32:59;;;;;;;8.98;3.35;;;18.00;75.40;;;;;;5038985;28;20105;-89
2023/10/06 13:35:26;;;;;;;9.77;4.05;;;17.90;75.30;;;;;;5030199;28;20125;-90
2023/10/06 13:37:53;;;;;;;20.98;4.22;;;17.90;75.30;;;;;;5027517;28;20106;-89
2023/10/06 13:40:21;;;;;;;17.05;4.55;;;18.00;75.20;;;;;;5029930;28;20030;-90
2023/10/06 13:42:48;;;;;;;9.60;4.03;;;18.00;75.00;;;;;;5038118;28;20029;-89
2023/10/06 13:45:22;;;;;;;9.05;3.80;;;18.00;75.00;;;;;;5030365;28;20104;-91
2023/10/06 13:47:52;;;;;;;14.73;4.35;;;17.90;74.80;;;;;;5042422;28;20029;-91
2023/10/06 13:50:20;;;;;;;10.73;4.38;;;17.90;74.80;;;;;;5030537;28;20508;-90
2023/10/06 13:52:49;;;;;;;13.05;5.25;;;17.90;74.70;;;;;;5035540;28;20029;-90
2023/10/06 13:55:16;;;;;;;21.33;8.48;;;17.90;74.70;;;;;;5031715;28;20462;-90
2023/10/06 13:57:44;;;;;;;9.82;4.55;;;17.90;74.80;;;;;;5033121;28;20021;-91
2023/10/06 14:00:14;;;;;;;11.82;4.40;;;17.90;75.00;;;;;;5038582;28;20068;-90
2023/10/06 14:02:41;;;;;;;13.23;4.50;;;17.90;74.90;;;;;;5045290;28;20108;-90
2023/10/06 14:05:07;;;;;;;14.88;3.58;;;17.90;74.90;;;;;;5038697;28;20021;-91
2023/10/06 14:07:34;;;;;;;11.65;4.30;;;17.90;74.90;;;;;;5045935;28;20109;-91
2023/10/06 14:10:00;;;;;;;8.05;3.63;;;17.90;74.90;;;;;;5049784;28;20052;-91
2023/10/06 14:12:31;;;;;;;14.23;4.57;;;17.90;74.70;;;;;;5035812;28;20135;-90
2023/10/06 14:14:59;;;;;;;10.80;4.00;;;17.90;74.80;;;;;;5044019;28;20021;-90
2023/10/06 14:17:32;;;;;;;10.38;3.88;;;17.90;74.60;;;;;;5045184;28;20029;-92
2023/10/06 14:20:10;;;;;;;11.50;4.45;;;17.90;74.50;;;;;;5040531;28;20029;-90
2023/10/06 14:22:35;;;;;;;11.23;4.00;;;17.90;74.70;;;;;;5039171;28;20033;-91
2023/10/06 14:25:02;;;;;;;15.27;4.25;;;17.90;74.70;;;;;;5043761;28;20028;-90
2023/10/06 14:27:28;;;;;;;12.48;3.80;;;17.90;74.80;;;;;;5035171;28;20029;-90
2023/10/06 14:29:54;;;;;;;15.65;3.72;;;17.90;74.90;;;;;;5042331;28;20032;-90
2023/10/06 14:32:38;;;;;;;8.73;3.13;;;17.90;74.90;;;;;;5040662;28;20359;-91
2023/10/06 14:45:57;;;;;;;14.32;4.10;;;17.90;75.00;;;;;;5046798;28;20497;-90
2023/10/06 14:46:26;;;;;;;13.85;3.72;;;17.90;75.50;;;;;;5047257;28;20075;-90
2023/10/06 14:48:53;;;;;;;11.32;4.43;;;17.80;75.70;;;;;;5025123;28;20033;-90
2023/10/06 14:51:19;;;;;;;8.48;4.03;;;17.80;75.80;;;;;;5044586;28;20032;-89
2023/10/06 14:53:45;;;;;;;9.05;4.38;;;17.90;75.90;;;;;;5046924;28;20034;-89
2023/10/06 14:56:14;;;;;;;15.88;7.65;;;17.90;75.90;;;;;;5033793;28;20385;-89
2023/10/06 14:58:39;;;;;;;13.38;4.97;;;17.90;76.00;;;;;;5047315;28;20025;-90
2023/10/06 15:01:12;;;;;;;23.13;4.47;;;18.20;76.30;;;;;;5056767;28;20039;-89
2023/10/06 15:03:38;;;;;;;10.18;3.95;;;17.80;76.30;;;;;;5051694;28;20033;-89
2023/10/06 15:06:04;;;;;;;56.15;16.00;;;17.80;76.60;;;;;;5044943;28;20071;-89
2023/10/06 15:08:33;;;;;;;26.77;9.45;;;17.90;76.50;;;;;;5030665;28;20021;-88
2023/10/06 15:11:00;;;;;;;15.90;5.93;;;17.80;76.30;;;;;;5050417;28;20118;-90
2023/10/06 15:13:28;;;;;;;15.32;5.95;;;17.80;76.30;;;;;;5042929;28;20028;-89
2023/10/06 15:15:54;;;;;;;14.07;4.95;;;17.80;76.30;;;;;;5042059;28;20029;-90
2023/10/06 15:18:24;;;;;;;13.13;4.20;;;17.80;76.60;;;;;;5041309;28;20482;-89
2023/10/06 15:20:51;;;;;;;7.33;3.80;;;17.80;76.40;;;;;;5041246;28;20064;-90
2023/10/06 15:23:18;;;;;;;11.20;4.30;;;17.70;76.30;;;;;;5023254;28;20013;-91
2023/10/06 15:25:55;;;;;;;12.88;4.03;;;18.20;77.40;;;;;;5042958;28;20029;-90
2023/10/06 15:28:24;;;;;;;13.25;4.35;;;17.80;76.50;;;;;;5040284;28;20026;-90
2023/10/06 15:30:54;;;;;;;13.43;5.15;;;17.80;76.40;;;;;;5024642;28;20017;-91
2023/10/06 15:33:21;;;;;;;9.38;3.58;;;17.80;76.40;;;;;;5045132;28;20087;-89
2023/10/06 15:35:47;;;;;;;24.52;4.05;;;17.80;76.40;;;;;;5037461;28;20024;-85
2023/10/06 15:38:19;;;;;;;6.90;3.38;;;17.90;77.30;;;;;;5039192;28;20021;-84
2023/10/06 15:40:45;;;;;;;8.80;3.60;;;17.80;76.50;;;;;;5044110;28;20025;-86
2023/10/06 15:43:11;;;;;;;8.02;3.25;;;17.90;76.90;;;;;;5037960;28;20095;-86
2023/10/06 15:45:36;;;;;;;9.35;3.22;;;17.90;76.70;;;;;;5046967;28;20458;-81
2023/10/06 15:48:09;;;;;;;9.02;3.20;;;17.80;76.80;;;;;;5043100;28;20021;-86
2023/10/06 15:50:35;;;;;;;9.25;4.00;;;17.80;76.70;;;;;;5036792;28;20037;-85
2023/10/06 15:53:00;;;;;;;11.45;3.65;;;17.80;77.00;;;;;;5042035;28;20024;-85
2023/10/06 15:55:26;;;;;;;13.02;3.08;;;17.80;77.00;;;;;;5041975;28;20026;-86
2023/10/06 15:57:54;;;;;;;15.90;3.38;;;17.80;77.20;;;;;;5033995;28;20017;-86
2023/10/06 16:00:23;;;;;;;8.65;3.53;;;17.80;77.40;;;;;;5043548;28;20033;-85